createdAt,value
2022-10-15T00:01:35.397Z,12.25
2022-10-15T00:04:40.202Z,8.80
2022-10-15T00:07:47.786Z,10.98
2022-10-15T00:10:52.279Z,11.00
2022-10-15T00:13:59.255Z,8.02
2022-10-15T00:17:03.985Z,7.22
2022-10-15T00:20:12.129Z,14.13
2022-10-15T00:23:18.692Z,10.68
2022-10-15T00:26:26.655Z,7.72
2022-10-15T00:29:31.816Z,9.52
2022-10-15T00:32:36.579Z,7.53
2022-10-15T00:35:44.084Z,8.07
2022-10-15T00:38:50.571Z,8.80
2022-10-15T00:41:55.403Z,7.40
2022-10-15T00:45:01.672Z,9.43
2022-10-15T00:48:08.214Z,9.93
2022-10-15T00:51:13.540Z,6.63
2022-10-15T00:54:20.183Z,11.30
2022-10-15T00:57:26.128Z,8.00
2022-10-15T01:00:31.643Z,7.63
2022-10-15T01:03:38.122Z,6.35
2022-10-15T01:06:42.891Z,6.78
2022-10-15T01:09:49.150Z,6.93
2022-10-15T01:13:04.361Z,6.95
2022-10-15T01:16:17.301Z,6.70
2022-10-15T01:19:39.171Z,6.05
2022-10-15T01:22:57.048Z,5.90
2022-10-15T01:26:22.456Z,5.68
2022-10-15T01:29:49.505Z,6.20
2022-10-15T01:33:16.258Z,5.50
2022-10-15T01:36:28.082Z,5.35
2022-10-15T01:39:35.970Z,5.38
2022-10-15T01:42:49.920Z,7.03
2022-10-15T01:45:59.527Z,5.65
2022-10-15T01:49:26.427Z,8.15
2022-10-15T01:52:36.068Z,5.07
2022-10-15T01:55:44.021Z,7.50
2022-10-15T01:58:51.095Z,6.07
2022-10-15T02:01:58.009Z,7.10
2022-10-15T02:05:06.767Z,5.95
2022-10-15T02:08:21.178Z,5.40
2022-10-15T02:11:28.948Z,4.70
2022-10-15T02:14:39.547Z,5.03
2022-10-15T02:17:50.478Z,5.15
2022-10-15T02:21:00.179Z,5.03
2022-10-15T02:24:10.166Z,6.70
2022-10-15T02:27:17.037Z,5.93
2022-10-15T02:30:22.248Z,5.45
2022-10-15T02:33:27.366Z,4.97
2022-10-15T02:36:34.076Z,5.20
2022-10-15T02:39:45.773Z,7.05
2022-10-15T02:42:51.728Z,5.07
2022-10-15T02:45:56.418Z,4.75
2022-10-15T02:49:01.274Z,4.45
2022-10-15T02:52:08.867Z,5.00
2022-10-15T02:55:13.663Z,5.18
2022-10-15T02:58:19.048Z,5.28
2022-10-15T03:01:24.658Z,4.68
2022-10-15T03:04:30.155Z,6.63
2022-10-15T03:07:38.087Z,5.30
2022-10-15T03:10:42.968Z,4.93
2022-10-15T03:13:48.126Z,4.78
2022-10-15T03:16:53.198Z,4.88
2022-10-15T03:19:57.983Z,4.43
2022-10-15T03:23:04.099Z,6.53
2022-10-15T03:26:12.013Z,4.60
2022-10-15T03:29:17.960Z,4.55
2022-10-15T03:32:32.006Z,4.28
2022-10-15T03:35:40.318Z,5.25
2022-10-15T03:38:48.125Z,5.80
2022-10-15T03:41:54.741Z,4.85
2022-10-15T03:45:09.022Z,4.38
2022-10-15T03:48:17.274Z,5.53
2022-10-15T03:51:24.610Z,5.97
2022-10-15T03:54:40.511Z,4.88
2022-10-15T03:57:45.996Z,3.88
2022-10-15T04:00:50.871Z,7.43
2022-10-15T04:03:55.988Z,8.23
2022-10-15T04:07:03.426Z,5.07
2022-10-15T04:10:12.857Z,5.70
2022-10-15T04:13:18.175Z,4.63
2022-10-15T04:16:23.140Z,7.22
2022-10-15T04:19:28.020Z,5.13
2022-10-15T04:22:42.428Z,4.45
2022-10-15T04:25:48.572Z,4.75
2022-10-15T04:28:53.679Z,4.90
2022-10-15T04:32:00.970Z,4.88
2022-10-15T04:35:07.760Z,6.45
2022-10-15T04:38:29.079Z,5.28
2022-10-15T04:41:41.223Z,5.70
2022-10-15T04:44:50.879Z,8.50
2022-10-15T04:47:55.666Z,7.13
2022-10-15T04:51:06.397Z,8.85
2022-10-15T04:54:22.443Z,11.18
2022-10-15T04:57:56.216Z,9.32
2022-10-15T05:01:12.089Z,15.05
2022-10-15T05:04:39.593Z,12.27
2022-10-15T05:07:44.929Z,12.50
2022-10-15T05:10:50.313Z,12.65
2022-10-15T05:13:58.658Z,17.15
2022-10-15T05:17:04.356Z,14.88
2022-10-15T05:20:15.167Z,18.30
2022-10-15T05:23:20.314Z,16.52
2022-10-15T05:26:37.575Z,15.68
2022-10-15T05:29:44.004Z,16.02
2022-10-15T05:32:53.446Z,16.92
2022-10-15T05:35:59.567Z,21.27
2022-10-15T05:39:07.161Z,20.45
2022-10-15T05:42:18.227Z,22.52
2022-10-15T05:45:31.582Z,25.17
2022-10-15T05:48:41.951Z,27.55
2022-10-15T05:51:46.722Z,24.42
2022-10-15T05:55:02.741Z,26.77
2022-10-15T05:58:08.088Z,30.98
2022-10-15T06:01:14.926Z,26.60
2022-10-15T06:04:20.088Z,26.90
2022-10-15T06:07:25.467Z,29.10
2022-10-15T06:10:30.940Z,29.63
2022-10-15T06:13:36.172Z,32.28
2022-10-15T06:16:42.395Z,29.10
2022-10-15T06:19:47.164Z,35.00
2022-10-15T06:22:51.928Z,33.65
2022-10-15T06:25:56.736Z,34.28
2022-10-15T06:29:01.851Z,30.70
2022-10-15T06:32:11.080Z,29.58
2022-10-15T06:35:23.087Z,32.55
2022-10-15T06:38:27.986Z,30.55
2022-10-15T06:41:32.783Z,34.53
2022-10-15T06:44:37.549Z,32.88
2022-10-15T06:47:44.029Z,33.53
2022-10-15T06:50:49.119Z,29.65
2022-10-15T06:53:53.842Z,29.35
2022-10-15T06:56:58.675Z,34.72
2022-10-15T07:00:03.413Z,28.27
2022-10-15T07:03:11.048Z,31.15
2022-10-15T07:06:16.717Z,31.67
2022-10-15T07:09:21.743Z,28.65
2022-10-15T07:12:26.902Z,27.90
2022-10-15T07:15:32.019Z,25.98
2022-10-15T07:18:39.559Z,29.05
2022-10-15T07:21:44.328Z,29.90
2022-10-15T07:24:49.082Z,35.53
2022-10-15T07:27:55.514Z,34.42
2022-10-15T07:31:03.242Z,32.53
2022-10-15T07:34:09.507Z,31.67
2022-10-15T07:37:14.226Z,32.85
2022-10-15T07:40:19.563Z,33.28
2022-10-15T07:43:24.298Z,30.63
2022-10-15T07:46:29.481Z,31.67
2022-10-15T07:49:35.738Z,33.05
2022-10-15T07:52:40.682Z,30.50
2022-10-15T07:55:45.459Z,28.70
2022-10-15T07:58:52.442Z,25.90
2022-10-15T08:01:57.131Z,29.75
2022-10-15T08:05:03.482Z,30.00
2022-10-15T08:08:09.029Z,29.08
2022-10-15T08:11:16.150Z,28.10
2022-10-15T08:14:20.909Z,26.25
2022-10-15T08:17:25.916Z,24.00
2022-10-15T08:20:32.165Z,28.48
2022-10-15T08:23:37.343Z,31.98
2022-10-15T08:26:42.432Z,27.38
2022-10-15T08:29:47.715Z,25.50
2022-10-15T08:32:52.526Z,25.20
2022-10-15T08:35:59.348Z,29.00
2022-10-15T08:39:07.122Z,29.15
2022-10-15T08:42:20.764Z,31.77
2022-10-15T08:45:29.811Z,31.85
2022-10-15T08:48:37.978Z,27.20
2022-10-15T08:51:49.609Z,25.20
2022-10-15T08:54:57.228Z,24.88
2022-10-15T08:58:08.152Z,31.42
2022-10-15T09:01:23.207Z,28.15
2022-10-15T09:04:34.159Z,30.15
2022-10-15T09:07:47.808Z,24.25
2022-10-15T09:11:01.126Z,27.83
2022-10-15T09:14:10.091Z,30.48
2022-10-15T09:17:21.892Z,27.17
2022-10-15T09:20:32.153Z,31.98
2022-10-15T09:23:39.044Z,34.00
2022-10-15T09:26:59.887Z,31.48
2022-10-15T09:30:14.076Z,27.33
2022-10-15T09:33:27.401Z,24.48
2022-10-15T09:36:41.534Z,28.58
2022-10-15T09:40:34.020Z,28.33
2022-10-15T09:43:41.617Z,24.50
2022-10-15T09:46:47.904Z,21.27
2022-10-15T09:49:52.871Z,26.20
2022-10-15T09:53:09.630Z,28.52
2022-10-15T09:56:19.918Z,25.83
2022-10-15T09:59:26.724Z,24.42
2022-10-15T10:02:31.918Z,24.58
2022-10-15T10:05:40.058Z,25.70
2022-10-15T10:08:53.467Z,23.75
2022-10-15T10:12:03.432Z,23.05
2022-10-15T10:15:28.511Z,27.50
2022-10-15T10:18:33.867Z,26.33
2022-10-15T10:21:42.123Z,30.67
2022-10-15T10:24:47.227Z,29.88
2022-10-15T10:27:53.912Z,22.85
2022-10-15T10:31:05.687Z,23.88
2022-10-15T10:34:16.139Z,28.50
2022-10-15T10:37:24.402Z,33.70
2022-10-15T10:40:31.572Z,33.10
2022-10-15T10:43:54.831Z,32.83
2022-10-15T10:47:13.722Z,32.30
2022-10-15T10:50:32.232Z,31.42
2022-10-15T10:53:48.498Z,29.98
2022-10-15T10:56:54.039Z,31.65
2022-10-15T11:00:00.480Z,31.30
2022-10-15T11:03:05.624Z,32.28
2022-10-15T11:06:52.830Z,30.63
2022-10-15T11:10:04.899Z,30.55
2022-10-15T11:13:31.744Z,29.35
2022-10-15T11:16:48.868Z,37.58
2022-10-15T11:23:38.081Z,36.75
2022-10-15T11:27:10.765Z,33.53
2022-10-15T11:30:33.297Z,35.63
2022-10-15T11:33:53.012Z,36.50
2022-10-15T11:37:14.342Z,32.75
2022-10-15T11:40:25.929Z,36.67
2022-10-15T11:43:48.772Z,38.38
2022-10-15T11:47:09.180Z,38.28
2022-10-15T11:50:29.675Z,40.50
2022-10-15T11:54:07.022Z,37.80
2022-10-15T11:57:15.528Z,39.08
2022-10-15T12:00:32.887Z,36.60
2022-10-15T12:03:45.363Z,41.00
2022-10-15T12:06:54.297Z,36.25
2022-10-15T12:10:07.389Z,35.15
2022-10-15T12:13:20.586Z,31.60
2022-10-15T12:16:32.365Z,35.42
2022-10-15T12:19:42.127Z,30.42
2022-10-15T12:23:00.415Z,35.35
2022-10-15T12:26:28.683Z,32.10
2022-10-15T12:29:33.945Z,33.55
2022-10-15T12:32:41.574Z,34.65
2022-10-15T12:35:56.216Z,32.00
2022-10-15T12:39:11.682Z,40.80
2022-10-15T12:42:29.783Z,34.75
2022-10-15T12:45:40.213Z,34.22
2022-10-15T12:48:47.320Z,29.48
2022-10-15T12:51:56.032Z,25.15
2022-10-15T12:55:23.955Z,27.38
2022-10-15T12:58:35.430Z,22.50
2022-10-15T13:01:55.206Z,27.77
2022-10-15T13:05:00.022Z,24.58
2022-10-15T13:08:13.903Z,22.60
2022-10-15T13:11:25.672Z,24.00
2022-10-15T13:14:36.186Z,31.33
2022-10-15T13:17:41.291Z,23.27
2022-10-15T13:20:50.912Z,25.73
2022-10-15T13:23:55.707Z,25.05
2022-10-15T13:27:03.102Z,27.50
2022-10-15T13:30:13.754Z,26.40
2022-10-15T13:33:19.137Z,24.25
2022-10-15T13:36:26.180Z,26.58
2022-10-15T13:43:00.413Z,27.23
2022-10-15T13:46:05.158Z,23.65
2022-10-15T13:49:14.094Z,24.20
2022-10-15T13:52:19.112Z,26.58
2022-10-15T13:55:28.510Z,26.63
2022-10-15T13:58:36.363Z,22.83
2022-10-15T14:01:47.764Z,22.58
2022-10-15T14:04:52.647Z,25.83
2022-10-15T14:07:57.884Z,27.23
2022-10-15T14:11:02.837Z,31.80
2022-10-15T14:14:31.764Z,29.90
2022-10-15T14:17:36.877Z,23.15
2022-10-15T14:20:46.079Z,32.95
2022-10-15T14:23:51.382Z,29.55
2022-10-15T14:26:56.272Z,30.02
2022-10-15T14:30:03.151Z,34.25
2022-10-15T14:33:34.508Z,30.95
2022-10-15T14:36:44.130Z,36.85
2022-10-15T14:39:49.983Z,32.13
2022-10-15T14:43:06.719Z,34.05
2022-10-15T14:46:19.117Z,35.08
2022-10-15T14:49:29.157Z,35.72
2022-10-15T14:52:34.505Z,33.00
2022-10-15T14:55:44.355Z,35.92
2022-10-15T14:58:52.377Z,36.55
2022-10-15T15:02:03.074Z,34.95
2022-10-15T15:05:19.613Z,40.67
2022-10-15T15:08:25.631Z,35.45
2022-10-15T15:11:30.509Z,36.55
2022-10-15T15:14:36.154Z,37.22
2022-10-15T15:17:42.546Z,33.08
2022-10-15T15:20:48.388Z,40.15
2022-10-15T15:23:53.424Z,36.22
2022-10-15T15:26:58.092Z,38.05
2022-10-15T15:30:02.829Z,40.40
2022-10-15T15:33:13.507Z,34.80
2022-10-15T15:36:22.569Z,40.08
2022-10-15T15:39:28.550Z,40.05
2022-10-15T15:42:33.280Z,39.38
2022-10-15T15:45:38.908Z,40.42
2022-10-15T15:48:45.207Z,41.88
2022-10-15T15:51:50.022Z,40.75
2022-10-15T15:54:54.795Z,39.40
2022-10-15T15:57:59.703Z,36.42
2022-10-15T16:01:04.543Z,39.35
2022-10-15T16:04:10.693Z,35.25
2022-10-15T16:07:17.896Z,40.67
2022-10-15T16:10:25.359Z,41.80
2022-10-15T16:13:30.639Z,41.40
2022-10-15T16:16:36.045Z,40.03
2022-10-15T16:19:42.340Z,45.17
2022-10-15T16:22:51.247Z,43.80
2022-10-15T16:25:57.504Z,42.03
2022-10-15T16:29:02.267Z,44.85
2022-10-15T16:32:07.231Z,50.72
2022-10-15T16:35:16.042Z,49.10
2022-10-15T16:38:20.906Z,47.42
2022-10-15T16:41:25.738Z,44.92
2022-10-15T16:44:30.785Z,50.47
2022-10-15T16:47:35.631Z,45.17
2022-10-15T16:50:41.824Z,49.55
2022-10-15T16:53:48.236Z,49.70
2022-10-15T16:56:53.646Z,48.10
2022-10-15T16:59:58.444Z,47.55
2022-10-15T17:03:04.172Z,48.75
2022-10-15T17:06:14.004Z,49.58
2022-10-15T17:09:19.132Z,53.03
2022-10-15T17:12:24.498Z,48.15
2022-10-15T17:15:29.594Z,50.83
2022-10-15T17:18:34.299Z,52.88
2022-10-15T17:21:42.489Z,49.45
2022-10-15T17:24:50.600Z,47.47
2022-10-15T17:27:55.486Z,54.70
2022-10-15T17:31:05.217Z,49.67
2022-10-15T17:34:12.489Z,53.95
2022-10-15T17:37:19.343Z,44.42
2022-10-15T17:40:24.310Z,58.33
2022-10-15T17:43:29.452Z,51.70
2022-10-15T17:46:34.399Z,54.65
2022-10-15T17:49:39.199Z,51.13
2022-10-15T17:52:45.375Z,48.78
2022-10-15T17:55:50.408Z,59.80
2022-10-15T17:58:56.305Z,53.55
2022-10-15T18:02:02.352Z,53.60
2022-10-15T18:05:11.902Z,57.55
2022-10-15T18:08:19.203Z,56.88
2022-10-15T18:11:27.133Z,58.58
2022-10-15T18:14:32.662Z,53.00
2022-10-15T18:17:37.474Z,53.10
2022-10-15T18:20:44.051Z,59.65
2022-10-15T18:23:50.579Z,59.42
2022-10-15T18:26:55.320Z,58.42
2022-10-15T18:30:00.115Z,54.83
2022-10-15T18:33:05.448Z,64.10
2022-10-15T18:36:13.568Z,69.10
2022-10-15T18:39:19.949Z,57.55
2022-10-15T18:42:24.962Z,64.70
2022-10-15T18:45:30.118Z,58.15
2022-10-15T18:48:36.576Z,60.83
2022-10-15T18:51:42.731Z,57.15
2022-10-15T18:54:48.846Z,65.03
2022-10-15T18:57:53.626Z,72.15
2022-10-15T19:00:58.735Z,67.70
2022-10-15T19:04:05.812Z,63.28
2022-10-15T19:07:13.286Z,69.22
2022-10-15T19:10:20.097Z,71.30
2022-10-15T19:13:24.965Z,68.65
2022-10-15T19:16:30.311Z,72.72
2022-10-15T19:19:40.061Z,64.70
2022-10-15T19:22:46.056Z,73.88
2022-10-15T19:25:52.259Z,63.55
2022-10-15T19:28:57.921Z,70.90
2022-10-15T19:32:03.785Z,69.18
2022-10-15T19:35:09.968Z,62.30
2022-10-15T19:38:19.053Z,52.72
2022-10-15T19:41:25.943Z,63.22
2022-10-15T19:44:31.125Z,64.55
2022-10-15T19:47:35.891Z,60.25
2022-10-15T19:50:43.143Z,57.75
2022-10-15T19:53:51.732Z,57.28
2022-10-15T19:56:57.915Z,53.22
2022-10-15T20:00:04.113Z,62.85
2022-10-15T20:03:17.283Z,58.35
2022-10-15T20:06:22.602Z,54.72
2022-10-15T20:09:27.423Z,54.97
2022-10-15T20:12:34.560Z,52.22
2022-10-15T20:15:42.635Z,52.47
2022-10-15T20:18:48.140Z,56.80
2022-10-15T20:21:53.490Z,56.72
2022-10-15T20:24:58.678Z,54.15
2022-10-15T20:28:04.860Z,59.00
2022-10-15T20:31:14.229Z,57.05
2022-10-15T20:34:19.212Z,44.17
2022-10-15T20:37:23.911Z,53.40
2022-10-15T20:40:28.930Z,56.42
2022-10-15T20:43:35.539Z,54.65
2022-10-15T20:46:44.389Z,60.47
2022-10-15T20:49:50.919Z,58.42
2022-10-15T20:52:57.226Z,59.42
2022-10-15T20:56:02.688Z,61.40
2022-10-15T20:59:08.979Z,52.72
2022-10-15T21:02:13.689Z,59.35
2022-10-15T21:05:18.972Z,66.60
2022-10-15T21:08:24.630Z,61.22
2022-10-15T21:11:29.413Z,57.97
2022-10-15T21:14:35.720Z,54.58
2022-10-15T21:17:41.062Z,51.40
2022-10-15T21:20:46.067Z,59.20
2022-10-15T21:23:51.350Z,53.53
2022-10-15T21:26:56.467Z,51.42
2022-10-15T21:30:02.546Z,54.90
2022-10-15T21:33:07.919Z,51.35
2022-10-15T21:36:15.863Z,53.45
2022-10-15T21:39:20.705Z,56.80
2022-10-15T21:42:26.566Z,54.25
2022-10-15T21:45:33.015Z,47.42
2022-10-15T21:48:38.795Z,51.53
2022-10-15T21:51:43.771Z,46.75
2022-10-15T21:54:48.535Z,50.88
2022-10-15T21:57:53.740Z,44.40
2022-10-15T22:01:10.441Z,41.78
2022-10-15T22:04:16.694Z,43.95
2022-10-15T22:07:21.959Z,44.30
2022-10-15T22:10:27.079Z,47.30
2022-10-15T22:13:32.053Z,45.47
2022-10-15T22:16:40.182Z,41.80
2022-10-15T22:19:44.951Z,42.15
2022-10-15T22:22:51.251Z,38.38
2022-10-15T22:25:59.678Z,36.60
2022-10-15T22:29:08.035Z,40.42
2022-10-15T22:32:16.742Z,39.00
2022-10-15T22:35:21.672Z,36.45
2022-10-15T22:38:26.595Z,32.40
2022-10-15T22:41:33.562Z,41.38
2022-10-15T22:44:38.276Z,36.45
2022-10-15T22:47:44.511Z,34.60
2022-10-15T22:50:57.619Z,33.33
2022-10-15T22:54:03.216Z,35.70
2022-10-15T22:57:08.232Z,36.47
2022-10-15T23:00:15.106Z,35.50
2022-10-15T23:03:21.717Z,31.20
2022-10-15T23:06:27.548Z,32.40
2022-10-15T23:09:32.547Z,30.20
2022-10-15T23:12:38.031Z,32.40
2022-10-15T23:15:43.620Z,26.63
2022-10-15T23:18:55.375Z,34.00
2022-10-15T23:22:02.670Z,26.40
2022-10-15T23:25:10.126Z,29.05
2022-10-15T23:28:15.739Z,28.52
2022-10-15T23:31:22.531Z,30.17
2022-10-15T23:34:30.163Z,29.27
2022-10-15T23:37:36.212Z,30.23
2022-10-15T23:40:41.475Z,27.95
2022-10-15T23:43:46.206Z,28.02
2022-10-15T23:46:51.340Z,26.83
2022-10-15T23:49:57.598Z,22.90
2022-10-15T23:53:02.448Z,22.98
2022-10-15T23:56:07.517Z,23.05
2022-10-15T23:59:13.202Z,21.80
